UBG362 OEJN-VGHS
Flight info
| Callsign | UBG362 |
|---|---|
| Flight time | N/A |
| Altitude | 37000 |
| Route | EGREP T532 KODIS Y214 NAGUB/N0474F390 Y214 RAPMA DCT KUVSO DCT KATIT DCT MIDGU M440 TULBU N881 RASKI L639 BPL A791 CEA A462 DAC |
| Aircraft | A333/H-SDE3GHIJ2J3J5M1RVWXY/LB2D1 |
Departure
| Time | 2026-04-29 09:25 |
|---|---|
| Airport | King Abdulaziz International Airport (OEJN) |
Arrival
| Time | N/A |
|---|---|
| Airport | Hazrat Shahjalal International Airport (VGHS) |
| Time | Latitude | Longitude | Altitude | Speed | Heading |
|---|---|---|---|---|---|
| 2026-04-29 08:55 | 21.69794 | 39.14432 | 31 ft | 0 kts | 248° |
| 2026-04-29 08:56 | 21.69882 | 39.14395 | 25 ft | 0 kts | 248° |
| 2026-04-29 08:56 | 21.69907 | 39.14391 | 26 ft | 0 kts | 253° |
| 2026-04-29 09:10 | 21.69907 | 39.14392 | 26 ft | 2 kts | 253° |
| 2026-04-29 09:10 | 21.69915 | 39.14418 | 29 ft | 4 kts | 250° |
| 2026-04-29 09:11 | 21.69925 | 39.14445 | 31 ft | 4 kts | 245° |
| 2026-04-29 09:11 | 21.69933 | 39.14463 | 31 ft | 4 kts | 239° |
| 2026-04-29 09:11 | 21.69948 | 39.14485 | 31 ft | 4 kts | 214° |
| 2026-04-29 09:11 | 21.69965 | 39.14491 | 31 ft | 1 kts | 165° |
| 2026-04-29 09:14 | 21.69964 | 39.14492 | 31 ft | 2 kts | 165° |
| 2026-04-29 09:15 | 21.69926 | 39.14504 | 31 ft | 10 kts | 163° |
| 2026-04-29 09:15 | 21.69868 | 39.14537 | 30 ft | 0 kts | 141° |
| 2026-04-29 09:15 | 21.69860 | 39.14544 | 27 ft | 5 kts | 145° |
| 2026-04-29 09:15 | 21.69840 | 39.14557 | 29 ft | 0 kts | 153° |
| 2026-04-29 09:16 | 21.69790 | 39.14583 | 30 ft | 28 kts | 154° |
| 2026-04-29 09:16 | 21.69748 | 39.14605 | 28 ft | 0 kts | 157° |
| 2026-04-29 09:16 | 21.69742 | 39.14608 | 28 ft | 9 kts | 157° |
| 2026-04-29 09:16 | 21.69720 | 39.14588 | 28 ft | 0 kts | 158° |
| 2026-04-29 09:17 | 21.69712 | 39.14591 | 29 ft | 5 kts | 159° |
| 2026-04-29 09:17 | 21.69647 | 39.14617 | 30 ft | 16 kts | 161° |
| 2026-04-29 09:17 | 21.69509 | 39.14668 | 30 ft | 26 kts | 161° |
| 2026-04-29 09:17 | 21.69305 | 39.14733 | 29 ft | 35 kts | 167° |
| 2026-04-29 09:18 | 21.69110 | 39.14810 | 27 ft | 31 kts | 154° |
| 2026-04-29 09:18 | 21.68961 | 39.14883 | 27 ft | 0 kts | 161° |
| 2026-04-29 09:18 | 21.68942 | 39.14890 | 27 ft | 7 kts | 158° |
| 2026-04-29 09:19 | 21.68857 | 39.14926 | 28 ft | 18 kts | 159° |
| 2026-04-29 09:19 | 21.68710 | 39.14990 | 28 ft | 23 kts | 153° |
| 2026-04-29 09:19 | 21.68672 | 39.15011 | 28 ft | 0 kts | 65° |
| 2026-04-29 09:19 | 21.68672 | 39.15033 | 28 ft | 9 kts | 71° |
| 2026-04-29 09:20 | 21.68709 | 39.15156 | 28 ft | 24 kts | 75° |
| 2026-04-29 09:20 | 21.68710 | 39.15241 | 28 ft | 0 kts | 158° |
| 2026-04-29 09:21 | 21.68644 | 39.15273 | 28 ft | 22 kts | 156° |
| 2026-04-29 09:21 | 21.68436 | 39.15371 | 29 ft | 43 kts | 156° |
| 2026-04-29 09:21 | 21.68137 | 39.15485 | 31 ft | 47 kts | 160° |
| 2026-04-29 09:21 | 21.67829 | 39.15605 | 33 ft | 48 kts | 160° |
| 2026-04-29 09:22 | 21.67512 | 39.15734 | 34 ft | 49 kts | 163° |
| 2026-04-29 09:22 | 21.67215 | 39.15862 | 35 ft | 44 kts | 164° |
| 2026-04-29 09:22 | 21.66923 | 39.15953 | 36 ft | 40 kts | 155° |
| 2026-04-29 09:22 | 21.66659 | 39.16069 | 37 ft | 42 kts | 158° |
| 2026-04-29 09:23 | 21.66376 | 39.16176 | 38 ft | 44 kts | 158° |
| 2026-04-29 09:23 | 21.66138 | 39.16274 | 39 ft | 30 kts | 150° |
| 2026-04-29 09:23 | 21.66082 | 39.16311 | 39 ft | 0 kts | 77° |
| 2026-04-29 09:23 | 21.66089 | 39.16341 | 39 ft | 8 kts | 75° |
| 2026-04-29 09:24 | 21.66113 | 39.16418 | 38 ft | 12 kts | 68° |
| 2026-04-29 09:24 | 21.66127 | 39.16483 | 38 ft | 9 kts | 339° |
| 2026-04-29 09:24 | 21.66385 | 39.16381 | 38 ft | 71 kts | 340° |
| 2026-04-29 09:24 | 21.67052 | 39.16119 | 37 ft | 134 kts | 340° |
| 2026-04-29 09:25 | 21.68074 | 39.15708 | 401 ft | 168 kts | 339° |
| 2026-04-29 09:25 | 21.69229 | 39.15253 | 1178 ft | 186 kts | 339° |
| 2026-04-29 09:25 | 21.70523 | 39.14744 | 1882 ft | 214 kts | 340° |
| 2026-04-29 09:25 | 21.71974 | 39.14173 | 2699 ft | 227 kts | 340° |
| 2026-04-29 09:26 | 21.73484 | 39.13579 | 3147 ft | 239 kts | 340° |
| 2026-04-29 09:26 | 21.75086 | 39.12951 | 3655 ft | 249 kts | 339° |
| 2026-04-29 09:26 | 21.76751 | 39.12298 | 4158 ft | 259 kts | 338° |
| 2026-04-29 09:26 | 21.78460 | 39.11621 | 4725 ft | 266 kts | 337° |
| 2026-04-29 09:27 | 21.80226 | 39.10920 | 5257 ft | 274 kts | 337° |
| 2026-04-29 09:27 | 21.82026 | 39.10206 | 5754 ft | 278 kts | 337° |
| 2026-04-29 09:27 | 21.83862 | 39.09481 | 5973 ft | 281 kts | 336° |
| 2026-04-29 09:27 | 21.85681 | 39.08764 | 6132 ft | 282 kts | 336° |
| 2026-04-29 09:28 | 21.87557 | 39.08024 | 6565 ft | 288 kts | 337° |
| 2026-04-29 09:28 | 21.89437 | 39.07261 | 7258 ft | 287 kts | 334° |
| 2026-04-29 09:28 | 21.91264 | 39.06426 | 8030 ft | 285 kts | 333° |
| 2026-04-29 09:28 | 21.93070 | 39.05570 | 8769 ft | 285 kts | 333° |
| 2026-04-29 09:29 | 21.94895 | 39.04697 | 9513 ft | 286 kts | 333° |
| 2026-04-29 09:29 | 21.98620 | 39.02913 | 10459 ft | 307 kts | 333° |
| 2026-04-29 09:29 | 22.00631 | 39.01948 | 10686 ft | 325 kts | 333° |
| 2026-04-29 09:30 | 22.02753 | 39.00931 | 10893 ft | 342 kts | 333° |
| 2026-04-29 09:30 | 22.04950 | 38.99880 | 11096 ft | 357 kts | 333° |
| 2026-04-29 09:30 | 22.07296 | 38.98757 | 11331 ft | 370 kts | 333° |
| 2026-04-29 09:30 | 22.09647 | 38.97634 | 11784 ft | 377 kts | 333° |
| 2026-04-29 09:31 | 22.10434 | 38.97258 | 11925 ft | 378 kts | 333° |